createdAt,value
2018-01-27T00:00:52.222Z,23.58
2018-01-27T00:03:20.580Z,28.50
2018-01-27T00:05:49.145Z,28.02
2018-01-27T00:08:17.414Z,22.17
2018-01-27T00:10:45.640Z,20.50
2018-01-27T00:13:13.836Z,19.90
2018-01-27T00:15:42.139Z,25.67
2018-01-27T00:18:10.375Z,19.35
2018-01-27T00:20:38.759Z,21.10
2018-01-27T00:23:07.017Z,20.58
2018-01-27T00:25:35.422Z,17.83
2018-01-27T00:28:03.616Z,21.83
2018-01-27T00:30:31.917Z,18.67
2018-01-27T00:33:00.217Z,20.45
2018-01-27T00:35:28.836Z,20.00
2018-01-27T00:37:57.415Z,17.40
2018-01-27T00:40:25.674Z,18.17
2018-01-27T00:42:53.919Z,19.73
2018-01-27T00:45:22.220Z,17.17
2018-01-27T00:47:50.462Z,18.02
2018-01-27T00:50:18.758Z,24.48
2018-01-27T00:52:47.819Z,17.60
2018-01-27T00:55:16.117Z,20.23
2018-01-27T00:57:44.396Z,12.88
2018-01-27T01:00:12.698Z,17.55
2018-01-27T01:02:40.998Z,17.75
2018-01-27T01:05:09.308Z,16.98
2018-01-27T01:07:37.697Z,14.68
2018-01-27T01:10:05.895Z,19.42
2018-01-27T01:12:34.179Z,19.92
2018-01-27T01:15:02.573Z,17.85
2018-01-27T01:17:31.095Z,15.65
2018-01-27T01:19:59.485Z,16.05
2018-01-27T01:22:28.022Z,18.92
2018-01-27T01:24:56.479Z,18.70
2018-01-27T01:27:24.776Z,16.60
2018-01-27T01:29:53.202Z,18.37
2018-01-27T01:32:21.483Z,16.40
2018-01-27T01:34:49.536Z,17.35
2018-01-27T01:37:17.694Z,17.67
2018-01-27T01:39:45.994Z,14.98
2018-01-27T01:42:14.146Z,19.35
2018-01-27T01:44:42.342Z,17.25
2018-01-27T01:47:10.495Z,16.50
2018-01-27T01:49:38.930Z,19.42
2018-01-27T01:52:07.236Z,19.45
2018-01-27T01:54:35.636Z,13.65
2018-01-27T01:57:04.040Z,14.55
2018-01-27T01:59:32.437Z,24.63
2018-01-27T02:02:00.689Z,27.35
2018-01-27T02:04:29.135Z,32.03
2018-01-27T02:06:57.584Z,24.65
2018-01-27T02:09:26.116Z,22.00
2018-01-27T02:11:57.275Z,17.73
2018-01-27T02:14:25.583Z,18.62
2018-01-27T02:16:53.957Z,22.23
2018-01-27T02:19:23.201Z,15.85
2018-01-27T02:21:51.487Z,20.35
2018-01-27T02:24:19.697Z,16.20
2018-01-27T02:26:47.885Z,20.85
2018-01-27T02:29:16.042Z,22.15
2018-01-27T02:31:44.621Z,17.27
2018-01-27T02:34:12.975Z,22.60
2018-01-27T02:36:42.034Z,29.52
2018-01-27T02:39:10.140Z,24.12
2018-01-27T02:41:38.365Z,19.85
2018-01-27T02:44:06.974Z,26.92
2018-01-27T02:46:35.199Z,35.70
2018-01-27T02:49:03.726Z,23.10
2018-01-27T02:51:32.082Z,26.73
2018-01-27T02:54:00.618Z,27.00
2018-01-27T02:56:29.335Z,30.37
2018-01-27T02:58:57.937Z,20.58
2018-01-27T03:01:26.444Z,20.77
2018-01-27T03:03:55.601Z,23.45
2018-01-27T03:06:25.364Z,18.27
2018-01-27T03:08:53.640Z,19.20
2018-01-27T03:11:22.277Z,17.95
2018-01-27T03:13:50.776Z,15.85
2018-01-27T03:16:20.088Z,17.50
2018-01-27T03:18:48.675Z,15.88
2018-01-27T03:21:18.475Z,18.08
2018-01-27T03:23:46.915Z,13.00
2018-01-27T03:26:16.104Z,10.77
2018-01-27T03:28:44.944Z,10.73
2018-01-27T03:31:13.564Z,13.73
2018-01-27T03:33:42.522Z,10.93
2018-01-27T03:36:12.155Z,11.63
2018-01-27T03:38:42.524Z,9.23
2018-01-27T03:41:11.439Z,12.82
2018-01-27T03:43:39.941Z,12.73
2018-01-27T03:46:10.380Z,11.63
2018-01-27T03:48:38.904Z,12.85
2018-01-27T03:51:09.234Z,12.77
2018-01-27T03:53:37.957Z,10.60
2018-01-27T03:56:06.721Z,10.50
2018-01-27T03:58:35.458Z,17.12
2018-01-27T04:01:06.312Z,11.12
2018-01-27T04:03:35.073Z,9.70
2018-01-27T04:06:06.958Z,10.93
2018-01-27T04:08:37.018Z,10.23
2018-01-27T04:11:07.869Z,10.82
2018-01-27T04:13:36.690Z,14.23
2018-01-27T04:16:05.716Z,12.18
2018-01-27T04:18:36.354Z,14.07
2018-01-27T04:21:06.674Z,16.80
2018-01-27T04:23:37.096Z,13.20
2018-01-27T04:26:07.398Z,15.82
2018-01-27T04:28:37.776Z,13.05
2018-01-27T04:31:07.419Z,12.70
2018-01-27T04:33:36.286Z,16.37
2018-01-27T04:36:06.591Z,14.50
2018-01-27T04:38:36.102Z,12.60
2018-01-27T04:41:04.589Z,14.40
2018-01-27T04:43:34.851Z,15.60
2018-01-27T04:46:06.293Z,14.60
2018-01-27T04:48:35.243Z,10.90
2018-01-27T04:51:04.126Z,9.68
2018-01-27T04:53:33.342Z,15.82
2018-01-27T04:56:03.106Z,13.70
2018-01-27T04:58:31.894Z,12.37
2018-01-27T05:01:01.216Z,11.55
2018-01-27T05:03:32.344Z,13.88
2018-01-27T05:06:00.946Z,10.07
2018-01-27T05:11:06.566Z,17.00
2018-01-27T05:13:35.134Z,11.90
2018-01-27T05:16:04.199Z,8.48
2018-01-27T05:18:33.407Z,11.75
2018-01-27T05:21:02.593Z,8.95
2018-01-27T05:23:31.329Z,11.43
2018-01-27T05:31:06.835Z,13.48
2018-01-27T05:33:35.543Z,13.73
2018-01-27T05:36:04.125Z,13.80
2018-01-27T05:38:33.085Z,17.35
2018-01-27T05:41:03.318Z,22.90
2018-01-27T05:43:32.181Z,18.70
2018-01-27T05:46:09.384Z,18.10
2018-01-27T05:48:41.058Z,17.60
2018-01-27T05:51:09.560Z,14.77
2018-01-27T05:53:38.906Z,14.05
2018-01-27T05:59:17.755Z,15.80
2018-01-27T06:01:47.379Z,11.80
2018-01-27T06:04:17.819Z,12.10
2018-01-27T06:06:46.935Z,13.98
2018-01-27T06:09:16.677Z,14.18
2018-01-27T06:11:45.795Z,15.43
2018-01-27T06:14:17.719Z,15.15
2018-01-27T06:16:46.214Z,15.80
2018-01-27T06:19:14.674Z,23.10
2018-01-27T06:21:43.523Z,17.25
2018-01-27T06:24:11.968Z,19.40
2018-01-27T06:26:40.333Z,15.82
2018-01-27T06:29:09.259Z,22.33
2018-01-27T06:31:37.754Z,31.50
2018-01-27T06:34:06.000Z,23.52
2018-01-27T06:36:34.459Z,27.80
2018-01-27T06:39:02.625Z,27.37
2018-01-27T06:41:30.968Z,30.10
2018-01-27T06:43:59.540Z,24.70
2018-01-27T06:46:28.851Z,26.73
2018-01-27T06:48:57.037Z,23.67
2018-01-27T06:51:25.335Z,16.55
2018-01-27T06:53:53.644Z,17.27
2018-01-27T06:56:21.928Z,25.77
2018-01-27T06:58:50.266Z,25.25
2018-01-27T07:01:18.564Z,26.50
2018-01-27T07:03:46.836Z,19.45
2018-01-27T07:06:15.217Z,19.15
2018-01-27T07:08:43.436Z,22.00
2018-01-27T07:11:11.718Z,17.40
2018-01-27T07:13:40.112Z,19.95
2018-01-27T07:16:08.355Z,9.32
2018-01-27T07:18:36.679Z,15.23
2018-01-27T07:21:04.926Z,13.62
2018-01-27T07:23:33.302Z,11.85
2018-01-27T07:26:01.400Z,13.55
2018-01-27T07:28:29.703Z,14.48
2018-01-27T07:30:57.794Z,11.65
2018-01-27T07:33:26.090Z,11.23
2018-01-27T07:35:54.220Z,9.85
2018-01-27T07:38:22.538Z,13.13
2018-01-27T07:40:50.873Z,17.20
2018-01-27T07:43:19.057Z,18.12
2018-01-27T07:45:47.313Z,14.27
2018-01-27T07:48:15.768Z,14.38
2018-01-27T07:50:44.033Z,20.70
2018-01-27T07:53:12.465Z,21.20
2018-01-27T07:55:40.740Z,19.25
2018-01-27T07:58:09.051Z,14.35
2018-01-27T08:00:38.155Z,16.75
2018-01-27T08:03:06.350Z,15.18
2018-01-27T08:05:34.459Z,14.32
2018-01-27T08:08:02.653Z,15.05
2018-01-27T08:10:30.930Z,11.35
2018-01-27T08:12:59.239Z,14.85
2018-01-27T08:15:27.638Z,18.73
2018-01-27T08:17:55.865Z,16.17
2018-01-27T08:20:23.996Z,13.90
2018-01-27T08:22:52.222Z,10.48
2018-01-27T08:25:20.305Z,10.55
2018-01-27T08:27:48.808Z,10.30
2018-01-27T08:30:17.113Z,15.07
2018-01-27T08:32:45.954Z,11.55
2018-01-27T08:35:14.241Z,10.82
2018-01-27T08:37:42.506Z,13.75
2018-01-27T08:40:10.813Z,18.70
2018-01-27T08:42:39.056Z,19.80
2018-01-27T08:45:07.306Z,21.23
2018-01-27T08:47:35.528Z,21.30
2018-01-27T08:50:03.693Z,14.90
2018-01-27T08:52:31.875Z,15.55
2018-01-27T08:55:00.180Z,11.30
2018-01-27T08:57:28.379Z,11.02
2018-01-27T08:59:56.457Z,10.95
2018-01-27T09:02:24.546Z,15.23
2018-01-27T09:04:52.647Z,13.68
2018-01-27T09:07:20.833Z,13.15
2018-01-27T09:09:48.929Z,11.48
2018-01-27T09:12:17.129Z,17.00
2018-01-27T09:14:45.129Z,15.20
2018-01-27T09:17:13.515Z,12.07
2018-01-27T09:19:42.154Z,14.10
2018-01-27T09:22:10.313Z,11.50
2018-01-27T09:24:38.273Z,10.45
2018-01-27T09:27:06.361Z,13.98
2018-01-27T09:29:34.722Z,11.18
2018-01-27T09:32:02.886Z,12.98
2018-01-27T09:34:31.079Z,10.77
2018-01-27T09:36:59.183Z,13.55
2018-01-27T09:39:27.377Z,10.57
2018-01-27T09:41:55.395Z,13.57
2018-01-27T09:44:23.766Z,12.00
2018-01-27T09:46:52.042Z,14.05
2018-01-27T09:49:20.362Z,14.90
2018-01-27T09:51:48.641Z,16.48
2018-01-27T09:54:16.941Z,15.10
2018-01-27T09:56:45.334Z,14.25
2018-01-27T09:59:13.539Z,19.02
2018-01-27T10:01:41.843Z,20.73
2018-01-27T10:04:10.185Z,16.75
2018-01-27T10:06:38.526Z,16.25
2018-01-27T10:09:06.730Z,14.27
2018-01-27T10:11:34.951Z,15.80
2018-01-27T10:14:03.121Z,14.85
2018-01-27T10:16:31.210Z,16.27
2018-01-27T10:19:00.442Z,15.70
2018-01-27T10:21:28.726Z,15.95
2018-01-27T10:23:56.948Z,16.20
2018-01-27T10:26:25.034Z,10.27
2018-01-27T10:28:53.198Z,17.87
2018-01-27T10:31:21.603Z,12.30
2018-01-27T10:33:49.903Z,12.52
2018-01-27T10:36:18.205Z,17.70
2018-01-27T10:38:46.496Z,12.75
2018-01-27T10:41:14.599Z,13.00
2018-01-27T10:43:42.883Z,11.65
2018-01-27T10:46:11.229Z,16.87
2018-01-27T10:48:39.376Z,13.35
2018-01-27T10:51:07.560Z,12.18
2018-01-27T10:53:35.754Z,13.88
2018-01-27T10:56:03.752Z,13.68
2018-01-27T10:58:32.552Z,11.63
2018-01-27T11:01:00.653Z,17.30
2018-01-27T11:03:28.833Z,17.60
2018-01-27T11:05:56.975Z,17.90
2018-01-27T11:08:25.227Z,13.77
2018-01-27T11:10:53.501Z,13.73
2018-01-27T11:13:21.932Z,14.52
2018-01-27T11:15:50.116Z,20.90
2018-01-27T11:18:18.424Z,13.88
2018-01-27T11:20:46.608Z,13.88
2018-01-27T11:23:14.799Z,11.12
2018-01-27T11:25:43.003Z,11.52
2018-01-27T11:28:11.192Z,11.88
2018-01-27T11:30:39.383Z,12.63
2018-01-27T11:33:07.594Z,14.07
2018-01-27T11:35:35.775Z,12.90
2018-01-27T11:38:03.984Z,14.20
2018-01-27T11:40:32.160Z,15.52
2018-01-27T11:43:00.831Z,16.48
2018-01-27T11:45:29.274Z,16.30
2018-01-27T11:47:57.392Z,14.23
2018-01-27T11:50:25.658Z,14.87
2018-01-27T11:52:53.862Z,13.77
2018-01-27T11:55:22.265Z,13.25
2018-01-27T11:57:50.352Z,12.75
2018-01-27T12:00:18.752Z,10.80
2018-01-27T12:02:46.932Z,11.50
2018-01-27T12:05:15.131Z,11.05
2018-01-27T12:07:43.216Z,16.60
2018-01-27T12:10:11.415Z,11.82
2018-01-27T12:12:39.512Z,10.43
2018-01-27T12:15:07.698Z,13.23
2018-01-27T12:17:35.896Z,12.32
2018-01-27T12:20:04.097Z,11.27
2018-01-27T12:22:32.201Z,12.43
2018-01-27T12:25:00.701Z,11.30
2018-01-27T12:27:28.889Z,12.05
2018-01-27T12:29:56.999Z,10.73
2018-01-27T12:32:25.070Z,12.32
2018-01-27T12:34:53.355Z,11.55
2018-01-27T12:37:21.456Z,15.77
2018-01-27T12:39:49.646Z,13.05
2018-01-27T12:42:17.845Z,13.75
2018-01-27T12:44:46.037Z,12.45
2018-01-27T12:47:14.218Z,13.32
2018-01-27T12:49:42.436Z,17.23
2018-01-27T12:52:10.387Z,14.45
2018-01-27T12:54:38.397Z,11.73
2018-01-27T12:57:06.394Z,13.32
2018-01-27T12:59:34.433Z,11.50
2018-01-27T13:02:02.333Z,11.40
2018-01-27T13:04:30.313Z,11.15
2018-01-27T13:06:58.293Z,8.77
2018-01-27T13:09:26.313Z,10.30
2018-01-27T13:11:54.253Z,10.82
2018-01-27T13:14:22.288Z,10.57
2018-01-27T13:16:50.258Z,13.25
2018-01-27T13:19:18.370Z,11.95
2018-01-27T13:21:46.529Z,11.23
2018-01-27T13:24:14.529Z,13.18
2018-01-27T13:26:42.456Z,9.98
2018-01-27T13:29:10.478Z,10.32
2018-01-27T13:31:38.466Z,9.68
2018-01-27T13:34:06.446Z,9.43
2018-01-27T13:36:34.425Z,8.23
2018-01-27T13:39:02.328Z,9.90
2018-01-27T13:41:30.308Z,13.40
2018-01-27T13:43:58.407Z,6.43
2018-01-27T13:46:26.553Z,7.70
2018-01-27T13:48:54.696Z,7.35
2018-01-27T13:51:22.821Z,7.00
2018-01-27T13:53:50.856Z,7.70
2018-01-27T13:56:18.835Z,6.78
2018-01-27T13:58:46.835Z,6.32
2018-01-27T14:01:14.821Z,6.93
2018-01-27T14:03:42.874Z,8.68
2018-01-27T14:06:10.882Z,7.45
2018-01-27T14:08:38.894Z,6.28
2018-01-27T14:11:06.843Z,13.30
2018-01-27T14:13:34.945Z,8.90
2018-01-27T14:16:03.037Z,10.45
2018-01-27T14:18:31.186Z,7.30
2018-01-27T14:20:59.337Z,13.73
2018-01-27T14:23:27.533Z,10.20
2018-01-27T14:25:55.706Z,11.40
2018-01-27T14:28:23.668Z,7.12
2018-01-27T14:30:51.664Z,7.97
2018-01-27T14:33:19.639Z,9.43
2018-01-27T14:35:47.635Z,10.98
2018-01-27T14:38:15.663Z,9.60
2018-01-27T14:40:43.702Z,8.93
2018-01-27T14:43:11.705Z,8.73
2018-01-27T14:45:39.726Z,9.65
2018-01-27T14:48:07.877Z,11.07
2018-01-27T14:50:36.187Z,6.55
2018-01-27T14:53:04.387Z,8.45
2018-01-27T14:55:32.774Z,10.05
2018-01-27T14:58:00.862Z,8.23
2018-01-27T15:00:29.154Z,10.43
2018-01-27T15:02:57.464Z,11.77
2018-01-27T15:05:25.550Z,13.68
2018-01-27T15:07:53.556Z,11.88
2018-01-27T15:10:21.836Z,12.37
2018-01-27T15:12:49.936Z,12.95
2018-01-27T15:15:18.217Z,10.30
2018-01-27T15:17:46.317Z,11.95
2018-01-27T15:20:14.416Z,12.30
2018-01-27T15:22:42.593Z,19.50
2018-01-27T15:25:10.812Z,20.45
2018-01-27T15:27:38.897Z,16.52
2018-01-27T15:30:07.289Z,10.02
2018-01-27T15:32:35.478Z,17.02
2018-01-27T15:35:03.776Z,10.52
2018-01-27T15:37:31.862Z,9.43
2018-01-27T15:40:00.046Z,13.32
2018-01-27T15:42:27.986Z,14.82
2018-01-27T15:44:56.150Z,16.30
2018-01-27T15:47:24.337Z,7.60
2018-01-27T15:49:52.536Z,9.20
2018-01-27T15:52:20.739Z,11.40
2018-01-27T15:54:48.825Z,12.75
2018-01-27T15:57:17.032Z,14.45
2018-01-27T15:59:45.210Z,7.87
2018-01-27T16:02:13.511Z,8.00
2018-01-27T16:04:41.799Z,10.23
2018-01-27T16:07:10.115Z,9.63
2018-01-27T16:09:38.287Z,15.65
2018-01-27T16:12:06.497Z,9.43
2018-01-27T16:14:34.897Z,16.00
2018-01-27T16:17:03.296Z,10.18
2018-01-27T16:19:31.580Z,13.20
2018-01-27T16:21:59.714Z,21.65
2018-01-27T16:24:27.798Z,31.30
2018-01-27T16:26:56.079Z,21.90
2018-01-27T16:29:24.158Z,18.60
2018-01-27T16:31:52.362Z,13.00
2018-01-27T16:34:20.554Z,11.50
2018-01-27T16:36:49.143Z,10.52
2018-01-27T16:39:17.336Z,10.40
2018-01-27T16:41:45.570Z,11.43
2018-01-27T16:44:13.634Z,12.63
2018-01-27T16:46:41.934Z,11.20
2018-01-27T16:49:10.225Z,16.10
2018-01-27T16:51:38.531Z,15.52
2018-01-27T16:54:06.705Z,12.60
2018-01-27T16:56:34.936Z,19.70
2018-01-27T16:59:03.143Z,13.00
2018-01-27T17:01:31.262Z,12.35
2018-01-27T17:03:59.290Z,15.10
2018-01-27T17:06:27.390Z,16.05
2018-01-27T17:08:55.415Z,14.02
2018-01-27T17:11:23.497Z,12.80
2018-01-27T17:13:51.515Z,14.77
2018-01-27T17:16:19.603Z,12.52
2018-01-27T17:18:47.698Z,10.35
2018-01-27T17:21:15.855Z,11.75
2018-01-27T17:23:43.935Z,12.88
2018-01-27T17:26:12.211Z,11.05
2018-01-27T17:28:40.416Z,13.05
2018-01-27T17:31:08.713Z,16.62
2018-01-27T17:33:36.815Z,14.57
2018-01-27T17:36:05.003Z,16.17
2018-01-27T17:38:33.195Z,15.15
2018-01-27T17:41:01.275Z,17.70
2018-01-27T17:43:29.368Z,16.05
2018-01-27T17:45:57.662Z,16.65
2018-01-27T17:48:25.764Z,14.77
2018-01-27T17:50:54.056Z,15.35
2018-01-27T17:53:22.355Z,18.52
2018-01-27T17:55:50.560Z,17.17
2018-01-27T17:58:18.768Z,20.85
2018-01-27T18:00:47.058Z,24.12
2018-01-27T18:03:15.223Z,20.98
2018-01-27T18:05:43.461Z,20.88
2018-01-27T18:08:11.722Z,20.85
2018-01-27T18:10:39.900Z,20.98
2018-01-27T18:13:08.220Z,17.95
2018-01-27T18:15:36.200Z,18.35
2018-01-27T18:18:04.346Z,18.05
2018-01-27T18:20:32.602Z,17.70
2018-01-27T18:23:00.821Z,22.35
2018-01-27T18:25:28.881Z,22.08
2018-01-27T18:27:57.081Z,26.25
2018-01-27T18:30:25.283Z,31.90
2018-01-27T18:32:53.481Z,27.08
2018-01-27T18:35:22.481Z,27.90
2018-01-27T18:37:50.681Z,31.27
2018-01-27T18:40:18.881Z,32.80
2018-01-27T18:42:47.001Z,36.67
2018-01-27T18:45:15.262Z,32.65
2018-01-27T18:47:43.462Z,29.37
2018-01-27T18:50:11.862Z,32.75
2018-01-27T18:52:40.144Z,20.37
2018-01-27T18:55:08.463Z,27.08
2018-01-27T18:57:36.645Z,20.75
2018-01-27T19:00:04.945Z,19.48
2018-01-27T19:02:33.135Z,27.40
2018-01-27T19:05:01.316Z,37.72
2018-01-27T19:07:29.517Z,35.10
2018-01-27T19:09:57.613Z,48.80
2018-01-27T19:12:25.920Z,37.35
2018-01-27T19:14:54.000Z,34.95
2018-01-27T19:17:22.059Z,20.45
2018-01-27T19:19:50.283Z,19.77
2018-01-27T19:22:18.776Z,21.52
2018-01-27T19:24:46.910Z,27.67
2018-01-27T19:27:15.077Z,27.20
2018-01-27T19:29:43.285Z,31.70
2018-01-27T19:32:11.658Z,32.45
2018-01-27T19:34:39.970Z,44.95
2018-01-27T19:37:08.153Z,37.90
2018-01-27T19:39:36.393Z,41.15
2018-01-27T19:42:04.555Z,46.37
2018-01-27T19:44:32.836Z,38.47
2018-01-27T19:47:01.059Z,24.77
2018-01-27T19:49:29.334Z,21.95
2018-01-27T19:51:57.423Z,22.17
2018-01-27T19:54:26.249Z,22.95
2018-01-27T19:56:54.420Z,22.00
2018-01-27T19:59:22.622Z,25.80
2018-01-27T20:01:50.724Z,23.05
2018-01-27T20:04:18.841Z,34.97
2018-01-27T20:06:47.000Z,34.42
2018-01-27T20:09:15.202Z,39.03
2018-01-27T20:11:43.401Z,42.25
2018-01-27T20:14:11.581Z,40.78
2018-01-27T20:16:39.680Z,41.28
2018-01-27T20:19:07.879Z,38.92
2018-01-27T20:21:36.059Z,37.42
2018-01-27T20:24:04.180Z,37.75
2018-01-27T20:26:32.555Z,30.42
2018-01-27T20:29:00.654Z,31.92
2018-01-27T20:31:28.949Z,28.80
2018-01-27T20:33:56.994Z,26.83
2018-01-27T20:36:25.144Z,29.45
2018-01-27T20:38:53.347Z,29.10
2018-01-27T20:41:22.138Z,32.35
2018-01-27T20:43:50.343Z,30.65
2018-01-27T20:46:18.732Z,36.78
2018-01-27T20:48:46.979Z,28.80
2018-01-27T20:51:15.142Z,31.52
2018-01-27T20:53:43.614Z,28.00
2018-01-27T20:56:11.799Z,33.42
2018-01-27T20:58:40.001Z,30.35
2018-01-27T21:01:08.148Z,37.05
2018-01-27T21:03:36.291Z,34.95
2018-01-27T21:06:04.594Z,30.02
2018-01-27T21:08:32.861Z,34.40
2018-01-27T21:11:00.857Z,34.85
2018-01-27T21:13:28.958Z,31.65
2018-01-27T21:15:57.057Z,29.83
2018-01-27T21:18:25.140Z,30.60
2018-01-27T21:20:53.459Z,34.05
2018-01-27T21:23:21.637Z,47.85
2018-01-27T21:25:49.723Z,56.28
2018-01-27T21:28:17.939Z,61.05
2018-01-27T21:30:46.046Z,59.78
2018-01-27T21:33:14.268Z,61.47
2018-01-27T21:35:43.029Z,43.75
2018-01-27T21:38:11.216Z,38.83
2018-01-27T21:40:39.416Z,38.47
2018-01-27T21:43:07.505Z,27.30
2018-01-27T21:45:35.707Z,35.65
2018-01-27T21:48:03.870Z,31.45
2018-01-27T21:50:32.117Z,30.17
2018-01-27T21:53:00.465Z,31.48
2018-01-27T21:55:28.772Z,35.92
2018-01-27T21:57:56.980Z,31.12
2018-01-27T22:00:25.171Z,36.22
2018-01-27T22:02:53.459Z,36.08
2018-01-27T22:05:21.717Z,33.22
2018-01-27T22:07:50.165Z,40.80
2018-01-27T22:10:18.245Z,32.97
2018-01-27T22:12:46.447Z,32.28
2018-01-27T22:15:14.841Z,33.47
2018-01-27T22:17:43.066Z,29.02
2018-01-27T22:20:11.351Z,30.62
2018-01-27T22:22:39.539Z,25.88
2018-01-27T22:25:07.825Z,26.52
2018-01-27T22:27:37.606Z,24.33
2018-01-27T22:30:05.859Z,18.60
2018-01-27T22:32:33.946Z,21.33
2018-01-27T22:35:02.150Z,28.42
2018-01-27T22:37:30.235Z,24.02
2018-01-27T22:39:58.434Z,23.45
2018-01-27T22:42:26.616Z,21.65
2018-01-27T22:44:54.713Z,21.55
2018-01-27T22:47:23.008Z,41.15
2018-01-27T22:49:51.790Z,43.30
2018-01-27T22:52:19.870Z,53.15
2018-01-27T22:54:48.221Z,44.33
2018-01-27T22:57:16.338Z,46.95
2018-01-27T22:59:44.719Z,46.13
2018-01-27T23:02:12.736Z,45.05
2018-01-27T23:04:40.941Z,34.97
2018-01-27T23:07:09.268Z,32.97
2018-01-27T23:09:37.586Z,31.48
2018-01-27T23:12:05.761Z,37.50
2018-01-27T23:14:34.529Z,46.55
2018-01-27T23:17:02.542Z,45.70
2018-01-27T23:19:30.820Z,56.20
2018-01-27T23:21:59.163Z,51.65
2018-01-27T23:24:27.310Z,48.92
2018-01-27T23:26:55.648Z,42.30
2018-01-27T23:29:24.167Z,34.70
2018-01-27T23:31:52.567Z,27.90
2018-01-27T23:34:21.058Z,26.25
2018-01-27T23:36:49.262Z,25.73
2018-01-27T23:39:17.620Z,24.48
2018-01-27T23:41:45.955Z,24.27
2018-01-27T23:44:14.237Z,28.95
2018-01-27T23:46:42.329Z,30.37
2018-01-27T23:49:10.543Z,26.92
2018-01-27T23:51:38.529Z,22.75
2018-01-27T23:54:06.723Z,30.95
2018-01-27T23:56:34.915Z,27.75
2018-01-27T23:59:03.301Z,33.63
